sensor_id;sensor_type;location;lat;lon;timestamp;pressure;altitude;pressure_sealevel;temperature;humidity
28628;BME280;15815;46.760;19.604;2023-06-14T00:01:47;100011.06;;;12.80;78.16
28628;BME280;15815;46.760;19.604;2023-06-14T00:04:13;100024.56;;;12.92;78.25
28628;BME280;15815;46.760;19.604;2023-06-14T00:06:39;100020.00;;;12.75;79.08
28628;BME280;15815;46.760;19.604;2023-06-14T00:09:05;100037.53;;;12.86;78.38
28628;BME280;15815;46.760;19.604;2023-06-14T00:11:31;100023.69;;;12.72;78.90
28628;BME280;15815;46.760;19.604;2023-06-14T00:13:57;100036.19;;;12.71;79.71
28628;BME280;15815;46.760;19.604;2023-06-14T00:16:23;100033.00;;;12.68;78.58
28628;BME280;15815;46.760;19.604;2023-06-14T00:18:49;100025.44;;;12.62;79.41
28628;BME280;15815;46.760;19.604;2023-06-14T00:21:16;100011.84;;;12.53;79.08
28628;BME280;15815;46.760;19.604;2023-06-14T00:23:42;100037.78;;;12.72;78.88
28628;BME280;15815;46.760;19.604;2023-06-14T00:26:08;100029.06;;;12.62;79.40
28628;BME280;15815;46.760;19.604;2023-06-14T00:28:41;100026.59;;;12.64;79.55
28628;BME280;15815;46.760;19.604;2023-06-14T00:33:42;100034.41;;;12.53;79.96
28628;BME280;15815;46.760;19.604;2023-06-14T00:36:11;100012.94;;;12.36;80.08
28628;BME280;15815;46.760;19.604;2023-06-14T00:38:37;100006.31;;;12.19;79.87
28628;BME280;15815;46.760;19.604;2023-06-14T00:41:03;100028.56;;;12.41;79.96
28628;BME280;15815;46.760;19.604;2023-06-14T00:43:29;100027.03;;;12.32;80.34
28628;BME280;15815;46.760;19.604;2023-06-14T00:46:01;100029.50;;;12.30;80.16
28628;BME280;15815;46.760;19.604;2023-06-14T00:48:30;100043.41;;;12.45;80.04
28628;BME280;15815;46.760;19.604;2023-06-14T00:50:57;100035.47;;;12.36;79.88
28628;BME280;15815;46.760;19.604;2023-06-14T00:53:34;100027.41;;;12.07;81.64
28628;BME280;15815;46.760;19.604;2023-06-14T00:56:09;100004.28;;;11.89;80.87
28628;BME280;15815;46.760;19.604;2023-06-14T01:01:15;100041.97;;;11.99;80.76
28628;BME280;15815;46.760;19.604;2023-06-14T01:03:44;100034.66;;;12.05;80.62
28628;BME280;15815;46.760;19.604;2023-06-14T01:06:43;100042.78;;;11.99;81.75
28628;BME280;15815;46.760;19.604;2023-06-14T01:09:18;100052.28;;;12.13;80.84
28628;BME280;15815;46.760;19.604;2023-06-14T01:14:27;100031.31;;;11.83;80.75
28628;BME280;15815;46.760;19.604;2023-06-14T01:16:55;100030.84;;;11.88;79.86
28628;BME280;15815;46.760;19.604;2023-06-14T01:19:27;100044.47;;;11.93;81.10
28628;BME280;15815;46.760;19.604;2023-06-14T01:21:55;100039.75;;;11.83;81.89
28628;BME280;15815;46.760;19.604;2023-06-14T01:24:21;100032.06;;;11.87;81.43
28628;BME280;15815;46.760;19.604;2023-06-14T01:26:47;100038.06;;;11.89;81.90
28628;BME280;15815;46.760;19.604;2023-06-14T01:29:14;100036.84;;;11.90;81.88
28628;BME280;15815;46.760;19.604;2023-06-14T01:31:41;100019.69;;;11.81;82.33
28628;BME280;15815;46.760;19.604;2023-06-14T01:34:10;100019.25;;;11.83;82.97
28628;BME280;15815;46.760;19.604;2023-06-14T01:36:36;100031.31;;;11.83;82.55
28628;BME280;15815;46.760;19.604;2023-06-14T01:39:06;100030.47;;;11.86;83.30
28628;BME280;15815;46.760;19.604;2023-06-14T01:41:36;100004.50;;;11.68;83.13
28628;BME280;15815;46.760;19.604;2023-06-14T01:44:02;100048.06;;;11.94;83.75
28628;BME280;15815;46.760;19.604;2023-06-14T01:46:29;100050.88;;;11.94;83.43
28628;BME280;15815;46.760;19.604;2023-06-14T01:48:56;100022.91;;;11.76;83.40
28628;BME280;15815;46.760;19.604;2023-06-14T01:51:22;100043.72;;;11.89;83.20
28628;BME280;15815;46.760;19.604;2023-06-14T01:53:48;100035.41;;;11.79;83.32
28628;BME280;15815;46.760;19.604;2023-06-14T01:56:14;100057.06;;;11.82;83.09
28628;BME280;15815;46.760;19.604;2023-06-14T01:58:39;100055.91;;;11.79;83.60
28628;BME280;15815;46.760;19.604;2023-06-14T02:04:08;100049.84;;;11.81;83.93
28628;BME280;15815;46.760;19.604;2023-06-14T02:06:36;100050.66;;;11.74;84.57
28628;BME280;15815;46.760;19.604;2023-06-14T02:09:02;100027.47;;;11.63;85.30
28628;BME280;15815;46.760;19.604;2023-06-14T02:11:32;100036.31;;;11.65;85.67
28628;BME280;15815;46.760;19.604;2023-06-14T02:13:58;100029.50;;;11.62;85.55
28628;BME280;15815;46.760;19.604;2023-06-14T02:16:24;100044.75;;;11.65;86.41
28628;BME280;15815;46.760;19.604;2023-06-14T02:18:50;100043.16;;;11.64;85.73
28628;BME280;15815;46.760;19.604;2023-06-14T02:21:16;100050.38;;;11.65;86.02
28628;BME280;15815;46.760;19.604;2023-06-14T02:23:41;100026.84;;;11.44;85.43
28628;BME280;15815;46.760;19.604;2023-06-14T02:26:08;100019.59;;;11.47;85.40
28628;BME280;15815;46.760;19.604;2023-06-14T02:28:33;100027.19;;;11.54;87.61
28628;BME280;15815;46.760;19.604;2023-06-14T02:30:59;100044.00;;;11.61;87.87
28628;BME280;15815;46.760;19.604;2023-06-14T02:33:25;100046.72;;;11.68;86.87
28628;BME280;15815;46.760;19.604;2023-06-14T02:35:51;100034.41;;;11.55;86.74
28628;BME280;15815;46.760;19.604;2023-06-14T02:38:17;100044.75;;;11.65;87.35
28628;BME280;15815;46.760;19.604;2023-06-14T02:40:42;100035.69;;;11.46;87.64
28628;BME280;15815;46.760;19.604;2023-06-14T02:43:08;100043.66;;;11.55;87.93
28628;BME280;15815;46.760;19.604;2023-06-14T02:45:34;100055.25;;;11.61;87.39
28628;BME280;15815;46.760;19.604;2023-06-14T02:48:00;100024.47;;;11.43;87.19
28628;BME280;15815;46.760;19.604;2023-06-14T02:50:26;100050.38;;;11.65;88.05
28628;BME280;15815;46.760;19.604;2023-06-14T02:52:52;100026.81;;;11.52;88.73
28628;BME280;15815;46.760;19.604;2023-06-14T02:55:18;100046.44;;;11.59;89.23
28628;BME280;15815;46.760;19.604;2023-06-14T02:57:44;100031.56;;;11.58;89.59
28628;BME280;15815;46.760;19.604;2023-06-14T03:00:24;100014.75;;;11.51;89.58
28628;BME280;15815;46.760;19.604;2023-06-14T03:02:50;100002.75;;;11.43;88.71
28628;BME280;15815;46.760;19.604;2023-06-14T03:05:16;100003.09;;;11.49;88.92
28628;BME280;15815;46.760;19.604;2023-06-14T03:07:42;99999.09;;;11.46;89.53
28628;BME280;15815;46.760;19.604;2023-06-14T03:10:09;100047.84;;;11.74;89.16
28628;BME280;15815;46.760;19.604;2023-06-14T03:12:35;100029.91;;;11.61;89.86
28628;BME280;15815;46.760;19.604;2023-06-14T03:15:01;100035.94;;;11.63;89.06
28628;BME280;15815;46.760;19.604;2023-06-14T03:17:34;100052.69;;;11.73;89.37
28628;BME280;15815;46.760;19.604;2023-06-14T03:20:00;100051.97;;;11.66;91.03
28628;BME280;15815;46.760;19.604;2023-06-14T03:22:26;100030.38;;;11.56;91.25
28628;BME280;15815;46.760;19.604;2023-06-14T03:24:52;100029.13;;;11.60;91.08
28628;BME280;15815;46.760;19.604;2023-06-14T03:27:18;100021.88;;;11.59;91.18
28628;BME280;15815;46.760;19.604;2023-06-14T03:29:47;100024.72;;;11.59;91.65
28628;BME280;15815;46.760;19.604;2023-06-14T03:32:12;100051.09;;;11.72;91.41
28628;BME280;15815;46.760;19.604;2023-06-14T03:34:38;100027.47;;;11.63;92.73
28628;BME280;15815;46.760;19.604;2023-06-14T03:37:04;100051.50;;;11.78;92.51
28628;BME280;15815;46.760;19.604;2023-06-14T03:39:37;100053.38;;;11.88;92.28
28628;BME280;15815;46.760;19.604;2023-06-14T03:42:03;100066.06;;;12.03;91.49
28628;BME280;15815;46.760;19.604;2023-06-14T03:44:29;100049.63;;;11.98;92.64
28628;BME280;15815;46.760;19.604;2023-06-14T03:46:54;100067.25;;;12.06;91.88
28628;BME280;15815;46.760;19.604;2023-06-14T03:49:20;100059.66;;;11.99;93.13
28628;BME280;15815;46.760;19.604;2023-06-14T03:51:46;100078.06;;;12.11;93.37
28628;BME280;15815;46.760;19.604;2023-06-14T03:54:12;100052.81;;;12.00;94.13
28628;BME280;15815;46.760;19.604;2023-06-14T03:56:38;100068.25;;;12.23;93.57
28628;BME280;15815;46.760;19.604;2023-06-14T03:59:03;100069.00;;;12.27;93.66
28628;BME280;15815;46.760;19.604;2023-06-14T04:01:34;100069.66;;;12.38;94.07
28628;BME280;15815;46.760;19.604;2023-06-14T04:04:04;100060.00;;;12.39;94.13
28628;BME280;15815;46.760;19.604;2023-06-14T04:12:45;100079.53;;;12.80;94.33
28628;BME280;15815;46.760;19.604;2023-06-14T04:15:11;100082.53;;;12.96;94.38
28628;BME280;15815;46.760;19.604;2023-06-14T04:17:38;100087.06;;;13.17;93.07
28628;BME280;15815;46.760;19.604;2023-06-14T04:20:04;100092.84;;;13.57;92.02
28628;BME280;15815;46.760;19.604;2023-06-14T04:22:34;100096.69;;;14.10;90.80
28628;BME280;15815;46.760;19.604;2023-06-14T04:25:00;100089.31;;;14.56;89.54
28628;BME280;15815;46.760;19.604;2023-06-14T04:27:26;100099.13;;;15.03;88.30
28628;BME280;15815;46.760;19.604;2023-06-14T04:29:53;100099.84;;;15.56;87.19
28628;BME280;15815;46.760;19.604;2023-06-14T04:32:20;100092.66;;;15.84;85.20
28628;BME280;15815;46.760;19.604;2023-06-14T04:34:47;100105.22;;;16.28;84.64
28628;BME280;15815;46.760;19.604;2023-06-14T04:37:12;100096.91;;;16.63;83.66
28628;BME280;15815;46.760;19.604;2023-06-14T04:39:38;100091.38;;;16.97;82.58
28628;BME280;15815;46.760;19.604;2023-06-14T04:42:04;100108.38;;;17.61;82.52
28628;BME280;15815;46.760;19.604;2023-06-14T04:44:29;100111.81;;;17.69;80.42
28628;BME280;15815;46.760;19.604;2023-06-14T04:47:00;100098.25;;;17.73;78.70
28628;BME280;15815;46.760;19.604;2023-06-14T04:49:26;100104.75;;;18.30;76.14
28628;BME280;15815;46.760;19.604;2023-06-14T04:51:52;100103.75;;;18.02;76.35
28628;BME280;15815;46.760;19.604;2023-06-14T04:54:18;100110.59;;;18.70;75.53
28628;BME280;15815;46.760;19.604;2023-06-14T04:56:44;100105.25;;;19.12;74.35
28628;BME280;15815;46.760;19.604;2023-06-14T04:59:16;100087.91;;;19.19;71.87
28628;BME280;15815;46.760;19.604;2023-06-14T05:01:47;100103.81;;;19.48;72.02
28628;BME280;15815;46.760;19.604;2023-06-14T05:04:14;100087.88;;;19.59;71.68
28628;BME280;15815;46.760;19.604;2023-06-14T05:06:41;100107.09;;;20.23;70.33
28628;BME280;15815;46.760;19.604;2023-06-14T05:09:06;100106.59;;;20.24;66.36
28628;BME280;15815;46.760;19.604;2023-06-14T05:11:38;100077.44;;;20.48;66.28
28628;BME280;15815;46.760;19.604;2023-06-14T05:14:07;100088.06;;;20.56;64.92
28628;BME280;15815;46.760;19.604;2023-06-14T05:16:34;100109.66;;;20.99;64.84
28628;BME280;15815;46.760;19.604;2023-06-14T05:19:00;100106.94;;;21.47;64.27
28628;BME280;15815;46.760;19.604;2023-06-14T05:21:29;100099.41;;;21.59;63.15
28628;BME280;15815;46.760;19.604;2023-06-14T05:23:54;100114.91;;;21.91;62.28
28628;BME280;15815;46.760;19.604;2023-06-14T05:26:33;100115.06;;;22.35;62.32
28628;BME280;15815;46.760;19.604;2023-06-14T05:28:58;100084.22;;;22.54;61.18
28628;BME280;15815;46.760;19.604;2023-06-14T05:36:35;100107.91;;;23.63;60.08
28628;BME280;15815;46.760;19.604;2023-06-14T05:39:10;100102.53;;;24.32;60.11
28628;BME280;15815;46.760;19.604;2023-06-14T05:41:48;100117.78;;;24.64;59.09
28628;BME280;15815;46.760;19.604;2023-06-14T05:44:20;100117.88;;;24.49;55.60
28628;BME280;15815;46.760;19.604;2023-06-14T05:57:15;100101.00;;;25.88;51.32
28628;BME280;15815;46.760;19.604;2023-06-14T06:07:45;100105.69;;;26.51;46.94
28628;BME280;15815;46.760;19.604;2023-06-14T06:17:55;100102.31;;;27.53;45.88
28628;BME280;15815;46.760;19.604;2023-06-14T06:20:24;100127.06;;;28.23;43.96
28628;BME280;15815;46.760;19.604;2023-06-14T06:23:00;100127.00;;;28.40;42.91
28628;BME280;15815;46.760;19.604;2023-06-14T06:25:31;100130.75;;;28.29;41.21
28628;BME280;15815;46.760;19.604;2023-06-14T06:28:08;100142.06;;;28.27;42.06
28628;BME280;15815;46.760;19.604;2023-06-14T06:30:58;100115.00;;;28.14;42.02
28628;BME280;15815;46.760;19.604;2023-06-14T06:33:26;100145.59;;;28.97;41.06
28628;BME280;15815;46.760;19.604;2023-06-14T06:36:10;100128.22;;;29.33;39.38
28628;BME280;15815;46.760;19.604;2023-06-14T06:47:13;100155.78;;;28.62;39.12
28628;BME280;15815;46.760;19.604;2023-06-14T06:50:00;100157.22;;;29.81;37.99
28628;BME280;15815;46.760;19.604;2023-06-14T06:52:33;100156.81;;;30.64;36.87
28628;BME280;15815;46.760;19.604;2023-06-14T07:01:17;100153.03;;;30.88;36.39
28628;BME280;15815;46.760;19.604;2023-06-14T07:13:20;100144.47;;;30.58;33.80
28628;BME280;15815;46.760;19.604;2023-06-14T07:19:13;100125.66;;;30.83;33.78
28628;BME280;15815;46.760;19.604;2023-06-14T07:22:25;100157.56;;;31.66;31.36
28628;BME280;15815;46.760;19.604;2023-06-14T07:25:05;100130.13;;;31.48;32.42
28628;BME280;15815;46.760;19.604;2023-06-14T07:31:09;100144.88;;;32.82;34.54
28628;BME280;15815;46.760;19.604;2023-06-14T07:39:02;100155.59;;;33.63;28.12
28628;BME280;15815;46.760;19.604;2023-06-14T08:41:33;100174.69;;;35.01;22.36
28628;BME280;15815;46.760;19.604;2023-06-14T08:44:58;100185.72;;;35.39;20.72
28628;BME280;15815;46.760;19.604;2023-06-14T08:47:20;100189.97;;;36.14;22.17
28628;BME280;15815;46.760;19.604;2023-06-14T08:49:47;100180.44;;;36.06;21.85
28628;BME280;15815;46.760;19.604;2023-06-14T09:00:02;100199.19;;;36.81;26.13
28628;BME280;15815;46.760;19.604;2023-06-14T09:05:42;100190.72;;;37.00;23.26
28628;BME280;15815;46.760;19.604;2023-06-14T09:08:15;100186.59;;;37.86;23.38
28628;BME280;15815;46.760;19.604;2023-06-14T09:14:02;100179.66;;;36.83;20.55
28628;BME280;15815;46.760;19.604;2023-06-14T09:16:31;100190.59;;;37.16;21.75
28628;BME280;15815;46.760;19.604;2023-06-14T09:34:20;100174.38;;;38.83;23.46
28628;BME280;15815;46.760;19.604;2023-06-14T09:37:51;100180.66;;;37.93;20.31
28628;BME280;15815;46.760;19.604;2023-06-14T09:53:45;100163.56;;;37.82;23.29
28628;BME280;15815;46.760;19.604;2023-06-14T09:56:26;100174.75;;;37.26;20.51
28628;BME280;15815;46.760;19.604;2023-06-14T10:10:41;100164.69;;;38.63;22.91
28628;BME280;15815;46.760;19.604;2023-06-14T10:13:12;100149.50;;;37.81;22.66
28628;BME280;15815;46.760;19.604;2023-06-14T10:16:12;100140.63;;;36.81;20.28
28628;BME280;15815;46.760;19.604;2023-06-14T10:24:19;100147.25;;;35.04;20.80
28628;BME280;15815;46.760;19.604;2023-06-14T10:27:09;100156.19;;;34.91;21.12
28628;BME280;15815;46.760;19.604;2023-06-14T10:32:23;100161.31;;;35.28;22.03
28628;BME280;15815;46.760;19.604;2023-06-14T10:35:13;100162.78;;;34.91;21.62
28628;BME280;15815;46.760;19.604;2023-06-14T10:50:42;100116.84;;;33.76;23.45
28628;BME280;15815;46.760;19.604;2023-06-14T10:53:45;100129.09;;;33.54;21.46
28628;BME280;15815;46.760;19.604;2023-06-14T10:59:08;100136.41;;;32.58;21.85
28628;BME280;15815;46.760;19.604;2023-06-14T11:05:04;100119.00;;;32.45;22.04
28628;BME280;15815;46.760;19.604;2023-06-14T11:23:04;100114.50;;;32.57;28.53
28628;BME280;15815;46.760;19.604;2023-06-14T11:30:43;100077.25;;;32.55;27.31
28628;BME280;15815;46.760;19.604;2023-06-14T11:57:07;100097.78;;;29.99;29.57
28628;BME280;15815;46.760;19.604;2023-06-14T12:35:42;100057.59;;;28.87;27.37
28628;BME280;15815;46.760;19.604;2023-06-14T14:26:01;100059.47;;;27.85;30.02
28628;BME280;15815;46.760;19.604;2023-06-14T14:28:43;100040.88;;;27.75;30.45
28628;BME280;15815;46.760;19.604;2023-06-14T15:27:19;100039.69;;;26.98;32.36
28628;BME280;15815;46.760;19.604;2023-06-14T15:45:12;100034.91;;;26.33;31.65
28628;BME280;15815;46.760;19.604;2023-06-14T16:03:39;100022.72;;;25.90;32.39
28628;BME280;15815;46.760;19.604;2023-06-14T16:06:30;100042.13;;;25.95;32.27
28628;BME280;15815;46.760;19.604;2023-06-14T16:08:55;100032.13;;;25.85;32.48
28628;BME280;15815;46.760;19.604;2023-06-14T16:11:21;100048.38;;;25.94;32.73
28628;BME280;15815;46.760;19.604;2023-06-14T16:13:47;100041.00;;;25.76;33.60
28628;BME280;15815;46.760;19.604;2023-06-14T16:16:14;100050.19;;;25.85;32.57
28628;BME280;15815;46.760;19.604;2023-06-14T16:18:39;100033.97;;;25.82;32.82
28628;BME280;15815;46.760;19.604;2023-06-14T16:21:05;100027.44;;;25.87;32.85
28628;BME280;15815;46.760;19.604;2023-06-14T16:23:34;100052.53;;;25.81;32.14
28628;BME280;15815;46.760;19.604;2023-06-14T16:26:00;100045.31;;;25.54;33.01
28628;BME280;15815;46.760;19.604;2023-06-14T16:28:26;100033.31;;;25.62;32.86
28628;BME280;15815;46.760;19.604;2023-06-14T16:30:57;100053.34;;;25.82;32.98
28628;BME280;15815;46.760;19.604;2023-06-14T16:33:28;100040.97;;;25.70;32.80
28628;BME280;15815;46.760;19.604;2023-06-14T16:35:57;100057.50;;;25.75;32.21
28628;BME280;15815;46.760;19.604;2023-06-14T16:38:23;100052.22;;;25.74;32.55
28628;BME280;15815;46.760;19.604;2023-06-14T16:40:48;100063.03;;;25.84;33.05
28628;BME280;15815;46.760;19.604;2023-06-14T16:43:14;100033.28;;;25.50;32.44
28628;BME280;15815;46.760;19.604;2023-06-14T16:45:40;100061.63;;;25.69;32.81
28628;BME280;15815;46.760;19.604;2023-06-14T16:48:05;100059.97;;;25.56;32.61
28628;BME280;15815;46.760;19.604;2023-06-14T16:50:44;100057.59;;;25.49;33.28
28628;BME280;15815;46.760;19.604;2023-06-14T16:53:12;100057.81;;;25.46;33.56
28628;BME280;15815;46.760;19.604;2023-06-14T16:55:38;100062.56;;;25.49;33.22
28628;BME280;15815;46.760;19.604;2023-06-14T16:58:04;100061.47;;;25.46;33.87
28628;BME280;15815;46.760;19.604;2023-06-14T17:00:30;100069.03;;;25.44;34.16
28628;BME280;15815;46.760;19.604;2023-06-14T17:05:32;100078.38;;;25.27;34.51
28628;BME280;15815;46.760;19.604;2023-06-14T17:08:01;100081.56;;;25.35;34.57
28628;BME280;15815;46.760;19.604;2023-06-14T17:10:28;100072.59;;;25.22;34.53
28628;BME280;15815;46.760;19.604;2023-06-14T17:12:57;100071.72;;;25.16;34.75
28628;BME280;15815;46.760;19.604;2023-06-14T17:15:26;100087.75;;;25.22;34.73
28628;BME280;15815;46.760;19.604;2023-06-14T17:17:52;100059.34;;;24.99;35.30
28628;BME280;15815;46.760;19.604;2023-06-14T17:20:19;100059.09;;;25.02;35.02
28628;BME280;15815;46.760;19.604;2023-06-14T17:22:45;100084.81;;;25.17;34.84
28628;BME280;15815;46.760;19.604;2023-06-14T17:25:12;100073.25;;;25.06;35.74
28628;BME280;15815;46.760;19.604;2023-06-14T17:27:38;100088.13;;;25.04;35.74
28628;BME280;15815;46.760;19.604;2023-06-14T17:30:05;100094.94;;;25.07;36.19
28628;BME280;15815;46.760;19.604;2023-06-14T17:32:30;100104.81;;;25.00;35.70
28628;BME280;15815;46.760;19.604;2023-06-14T17:34:56;100103.25;;;24.99;35.69
28628;BME280;15815;46.760;19.604;2023-06-14T17:37:22;100084.84;;;24.65;36.84
28628;BME280;15815;46.760;19.604;2023-06-14T17:39:51;100106.63;;;24.72;38.25
28628;BME280;15815;46.760;19.604;2023-06-14T17:42:19;100079.56;;;24.58;37.07
28628;BME280;15815;46.760;19.604;2023-06-14T17:44:45;100093.31;;;24.48;38.36
28628;BME280;15815;46.760;19.604;2023-06-14T17:47:14;100088.75;;;24.36;39.20
28628;BME280;15815;46.760;19.604;2023-06-14T17:49:41;100103.97;;;24.42;38.80
28628;BME280;15815;46.760;19.604;2023-06-14T17:52:07;100088.63;;;24.04;39.79
28628;BME280;15815;46.760;19.604;2023-06-14T17:54:33;100113.16;;;24.05;39.67
28628;BME280;15815;46.760;19.604;2023-06-14T17:56:59;100102.91;;;23.79;40.25
28628;BME280;15815;46.760;19.604;2023-06-14T17:59:28;100121.84;;;23.70;41.02
28628;BME280;15815;46.760;19.604;2023-06-14T18:01:53;100127.28;;;23.54;41.02
28628;BME280;15815;46.760;19.604;2023-06-14T18:04:47;100123.72;;;23.24;42.23
28628;BME280;15815;46.760;19.604;2023-06-14T18:22:59;100127.72;;;22.82;42.87
28628;BME280;15815;46.760;19.604;2023-06-14T18:25:25;100115.81;;;22.60;43.04
28628;BME280;15815;46.760;19.604;2023-06-14T18:27:51;100121.69;;;22.41;43.75
28628;BME280;15815;46.760;19.604;2023-06-14T18:30:20;100134.53;;;22.46;43.88
28628;BME280;15815;46.760;19.604;2023-06-14T18:32:47;100130.69;;;22.34;43.59
28628;BME280;15815;46.760;19.604;2023-06-14T18:35:13;100123.25;;;22.28;44.26
28628;BME280;15815;46.760;19.604;2023-06-14T18:37:40;100125.97;;;22.07;45.09
28628;BME280;15815;46.760;19.604;2023-06-14T18:40:07;100131.81;;;22.13;44.76
28628;BME280;15815;46.760;19.604;2023-06-14T18:42:32;100145.56;;;22.00;45.40
28628;BME280;15815;46.760;19.604;2023-06-14T18:44:58;100132.47;;;21.84;45.49
28628;BME280;15815;46.760;19.604;2023-06-14T18:47:24;100151.69;;;21.83;45.88
28628;BME280;15815;46.760;19.604;2023-06-14T18:49:50;100142.06;;;21.48;47.09
28628;BME280;15815;46.760;19.604;2023-06-14T18:52:21;100164.22;;;21.62;47.46
28628;BME280;15815;46.760;19.604;2023-06-14T18:54:48;100153.00;;;21.49;46.95
28628;BME280;15815;46.760;19.604;2023-06-14T18:57:13;100168.28;;;21.46;47.26
28628;BME280;15815;46.760;19.604;2023-06-14T18:59:39;100160.06;;;21.30;47.64
28628;BME280;15815;46.760;19.604;2023-06-14T19:02:15;100171.03;;;21.32;49.97
28628;BME280;15815;46.760;19.604;2023-06-14T19:04:41;100168.66;;;21.21;49.25
28628;BME280;15815;46.760;19.604;2023-06-14T19:07:07;100162.81;;;21.06;49.64
28628;BME280;15815;46.760;19.604;2023-06-14T19:09:32;100151.28;;;20.91;49.46
28628;BME280;15815;46.760;19.604;2023-06-14T19:14:26;100178.13;;;20.85;50.70
28628;BME280;15815;46.760;19.604;2023-06-14T19:16:52;100182.25;;;20.75;51.71
28628;BME280;15815;46.760;19.604;2023-06-14T19:19:21;100142.47;;;20.44;53.21
28628;BME280;15815;46.760;19.604;2023-06-14T19:21:47;100161.50;;;20.47;51.93
28628;BME280;15815;46.760;19.604;2023-06-14T19:24:13;100190.06;;;20.56;52.71
28628;BME280;15815;46.760;19.604;2023-06-14T19:26:39;100146.41;;;20.19;53.58
28628;BME280;15815;46.760;19.604;2023-06-14T19:29:18;100186.66;;;20.21;56.00
28628;BME280;15815;46.760;19.604;2023-06-14T19:31:44;100190.47;;;20.09;54.83
28628;BME280;15815;46.760;19.604;2023-06-14T19:34:10;100195.22;;;20.12;54.52
28628;BME280;15815;46.760;19.604;2023-06-14T19:36:36;100174.78;;;20.04;54.36
28628;BME280;15815;46.760;19.604;2023-06-14T19:39:01;100184.25;;;19.92;55.26
28628;BME280;15815;46.760;19.604;2023-06-14T19:41:27;100180.75;;;19.79;55.14
28628;BME280;15815;46.760;19.604;2023-06-14T19:43:55;100175.16;;;19.66;56.51
28628;BME280;15815;46.760;19.604;2023-06-14T19:46:24;100196.41;;;19.74;56.23
28628;BME280;15815;46.760;19.604;2023-06-14T19:48:51;100195.75;;;19.70;55.96
28628;BME280;15815;46.760;19.604;2023-06-14T19:54:07;100197.94;;;19.57;59.70
28628;BME280;15815;46.760;19.604;2023-06-14T19:56:42;100188.31;;;19.32;58.35
28628;BME280;15815;46.760;19.604;2023-06-14T19:59:08;100193.06;;;19.35;57.97
28628;BME280;15815;46.760;19.604;2023-06-14T20:01:36;100192.69;;;19.24;59.14
28628;BME280;15815;46.760;19.604;2023-06-14T20:04:02;100204.44;;;19.26;58.84
28628;BME280;15815;46.760;19.604;2023-06-14T20:06:28;100206.47;;;19.26;58.65
28628;BME280;15815;46.760;19.604;2023-06-14T20:08:54;100191.66;;;19.09;58.90
28628;BME280;15815;46.760;19.604;2023-06-14T20:11:21;100187.84;;;19.03;59.60
28628;BME280;15815;46.760;19.604;2023-06-14T20:13:50;100196.56;;;18.87;61.28
28628;BME280;15815;46.760;19.604;2023-06-14T20:16:16;100206.13;;;18.93;61.54
28628;BME280;15815;46.760;19.604;2023-06-14T20:18:45;100206.13;;;18.93;61.35
28628;BME280;15815;46.760;19.604;2023-06-14T20:21:11;100204.78;;;18.84;60.99
28628;BME280;15815;46.760;19.604;2023-06-14T20:23:41;100199.78;;;18.67;61.89
28628;BME280;15815;46.760;19.604;2023-06-14T20:26:07;100202.69;;;18.76;60.93
28628;BME280;15815;46.760;19.604;2023-06-14T20:28:33;100192.59;;;18.62;60.87
28628;BME280;15815;46.760;19.604;2023-06-14T20:31:04;100209.00;;;18.58;62.53
28628;BME280;15815;46.760;19.604;2023-06-14T20:33:30;100220.13;;;18.43;65.21
28628;BME280;15815;46.760;19.604;2023-06-14T20:35:56;100208.88;;;18.40;62.54
28628;BME280;15815;46.760;19.604;2023-06-14T20:38:23;100208.19;;;18.36;62.21
28628;BME280;15815;46.760;19.604;2023-06-14T20:40:48;100222.16;;;18.43;61.98
28628;BME280;15815;46.760;19.604;2023-06-14T20:43:14;100224.25;;;18.30;62.25
28628;BME280;15815;46.760;19.604;2023-06-14T20:45:40;100226.69;;;18.18;63.65
28628;BME280;15815;46.760;19.604;2023-06-14T20:48:08;100227.13;;;18.17;63.29
28628;BME280;15815;46.760;19.604;2023-06-14T20:50:34;100218.53;;;17.95;63.87
28628;BME280;15815;46.760;19.604;2023-06-14T20:53:03;100217.53;;;17.89;64.56
28628;BME280;15815;46.760;19.604;2023-06-14T20:55:29;100222.28;;;17.92;64.37
28628;BME280;15815;46.760;19.604;2023-06-14T20:57:57;100229.91;;;17.95;64.72
28628;BME280;15815;46.760;19.604;2023-06-14T21:00:23;100206.81;;;17.93;64.37
28628;BME280;15815;46.760;19.604;2023-06-14T21:03:01;100205.34;;;17.76;66.13
28628;BME280;15815;46.760;19.604;2023-06-14T21:05:28;100218.91;;;17.72;66.23
28628;BME280;15815;46.760;19.604;2023-06-14T21:07:54;100224.47;;;17.63;66.28
28628;BME280;15815;46.760;19.604;2023-06-14T21:12:56;100212.53;;;17.55;66.62
28628;BME280;15815;46.760;19.604;2023-06-14T21:15:23;100204.00;;;17.42;67.65
28628;BME280;15815;46.760;19.604;2023-06-14T21:17:55;100222.63;;;17.43;68.18
28628;BME280;15815;46.760;19.604;2023-06-14T21:20:25;100230.81;;;17.41;67.02
28628;BME280;15815;46.760;19.604;2023-06-14T21:22:54;100196.34;;;17.14;66.76
28628;BME280;15815;46.760;19.604;2023-06-14T21:25:24;100222.84;;;17.36;67.65
28628;BME280;15815;46.760;19.604;2023-06-14T21:27:53;100226.38;;;17.27;67.99
28628;BME280;15815;46.760;19.604;2023-06-14T21:30:37;100221.69;;;17.21;70.52
28628;BME280;15815;46.760;19.604;2023-06-14T21:33:04;100229.53;;;17.17;68.66
28628;BME280;15815;46.760;19.604;2023-06-14T21:35:42;100232.38;;;17.17;68.86
28628;BME280;15815;46.760;19.604;2023-06-14T21:38:07;100199.84;;;16.92;69.28
28628;BME280;15815;46.760;19.604;2023-06-14T21:43:09;100196.53;;;16.94;68.79